Time;durP1;ratioP1;P1;durP2;ratioP2;P2;SDS_P1;SDS_P2;PMS_P1;PMS_P2;Temp;Humidity;BMP_temperature;BMP_pressure;BME280_temperature;BME280_humidity;BME280_pressure;Samples;Min_cycle;Max_cycle;Signal;HPM_P1;HPM_P2
2022/02/28 00:00:05;;;;;;;;;;;;;;;-5.19;76.52;100862.91;5051677;28;20007;-60
2022/02/28 00:02:31;;;;;;;;;;;;;;;-5.21;76.68;100861.34;5052141;28;20304;-60
2022/02/28 00:04:57;;;;;;;;;;;;;;;-5.20;77.14;100858.66;5051845;28;21595;-61
2022/02/28 00:07:22;;;;;;;;;;;;;;;-5.20;77.38;100852.66;5052172;28;19929;-60
2022/02/28 00:09:48;;;;;;;;;;;;;;;-5.18;77.12;100864.53;5051699;28;19970;-60
2022/02/28 00:12:13;;;;;;;;;;;;;;;-5.14;76.84;100866.03;5052101;28;19932;-60
2022/02/28 00:14:39;;;;;;;;;;;;;;;-5.14;76.48;100855.69;5054060;28;19932;-60
2022/02/28 00:17:04;;;;;;;;;;;;;;;-5.13;76.28;100870.25;5056181;28;19959;-61
2022/02/28 00:19:30;;;;;;;;;;;;;;;-5.26;76.67;100859.88;5057019;28;19947;-61
2022/02/28 00:21:56;;;;;;;;;;;;;;;-5.30;77.17;100862.75;5054478;28;20023;-61
2022/02/28 00:24:21;;;;;;;;;;;;;;;-5.29;77.70;100862.66;5055576;28;19924;-62
2022/02/28 00:26:47;;;;;;;;;;;;;;;-5.30;77.87;100865.34;5055883;28;19956;-61
2022/02/28 00:29:12;;;;;;;;;;;;;;;-5.36;77.40;100871.72;5055108;28;20435;-62
2022/02/28 00:31:38;;;;;;;;;;;;;;;-5.35;77.89;100867.41;5055774;28;19929;-60
2022/02/28 00:34:03;;;;;;;;;;;;;;;-5.32;77.65;100877.56;5054300;28;20318;-62
2022/02/28 00:36:29;;;;;;;;;;;;;;;-5.33;77.74;100868.94;5054272;28;19972;-60
2022/02/28 00:38:55;;;;;;;;;;;;;;;-5.32;77.66;100869.81;5054223;28;19925;-61
2022/02/28 00:41:21;;;;;;;;;;;;;;;-5.39;78.09;100868.53;5055445;28;19936;-62
2022/02/28 00:43:47;;;;;;;;;;;;;;;-5.41;77.97;100865.19;5053973;28;19925;-62
2022/02/28 00:46:13;;;;;;;;;;;;;;;-5.41;77.96;100866.06;5055318;28;19929;-59
2022/02/28 00:48:38;;;;;;;;;;;;;;;-5.44;78.22;100857.63;5056019;28;19970;-62
2022/02/28 00:51:04;;;;;;;;;;;;;;;-5.44;77.81;100860.22;5056282;28;19968;-60
2022/02/28 00:53:31;;;;;;;;;;;;;;;-5.41;78.06;100860.88;5053869;28;19924;-60
2022/02/28 00:55:57;;;;;;;;;;;;;;;-5.40;78.04;100861.69;5053810;28;20031;-61
2022/02/28 00:58:22;;;;;;;;;;;;;;;-5.39;78.25;100855.59;5053932;28;20003;-60
2022/02/28 01:00:48;;;;;;;;;;;;;;;-5.41;78.10;100854.84;5053823;28;20036;-61
2022/02/28 01:03:13;;;;;;;;;;;;;;;-5.44;78.29;100857.63;5037438;28;19928;-61
2022/02/28 01:05:39;;;;;;;;;;;;;;;-5.45;78.29;100866.34;5053556;28;19925;-60
2022/02/28 01:08:04;;;;;;;;;;;;;;;-5.44;78.04;100866.25;5064338;28;19978;-60
2022/02/28 01:10:30;;;;;;;;;;;;;;;-5.48;78.59;100854.44;5073405;28;19925;-60
2022/02/28 01:12:56;;;;;;;;;;;;;;;-5.45;78.52;100856.81;5073520;28;19924;-61
2022/02/28 01:15:22;;;;;;;;;;;;;;;-5.44;78.16;100860.22;5073406;28;19924;-61
2022/02/28 01:17:48;;;;;;;;;;;;;;;-5.44;78.39;100855.06;5072845;28;20390;-60
2022/02/28 01:20:14;;;;;;;;;;;;;;;-5.44;78.43;100853.31;5073267;28;20386;-59
2022/02/28 01:22:40;;;;;;;;;;;;;;;-5.47;78.46;100845.78;5075006;28;19932;-60
2022/02/28 01:25:06;;;;;;;;;;;;;;;-5.52;78.43;100855.56;5055845;28;20348;-60
2022/02/28 01:27:32;;;;;;;;;;;;;;;-5.48;78.33;100849.25;5059546;28;19971;-60
2022/02/28 01:29:57;;;;;;;;;;;;;;;-5.53;78.28;100841.81;5060343;28;20374;-60
2022/02/28 01:32:23;;;;;;;;;;;;;;;-5.52;78.58;100847.81;5074807;28;19928;-61
2022/02/28 01:34:48;;;;;;;;;;;;;;;-5.46;78.67;100841.44;5072662;28;19931;-60
2022/02/28 01:37:14;;;;;;;;;;;;;;;-5.44;78.05;100840.41;5073085;28;19925;-59
2022/02/28 01:39:44;;;;;;;;;;;;;;;-5.42;78.28;100835.13;5074299;28;19936;-60
2022/02/28 01:42:10;;;;;;;;;;;;;;;-5.41;77.78;100831.59;5074630;28;19929;-61
2022/02/28 01:44:35;;;;;;;;;;;;;;;-5.45;77.91;100830.16;5072882;28;19925;-61
2022/02/28 01:47:02;;;;;;;;;;;;;;;-5.45;78.09;100832.75;5072483;28;20019;-61
2022/02/28 01:49:27;;;;;;;;;;;;;;;-5.47;78.03;100835.44;5073780;28;20309;-62
2022/02/28 01:51:53;;;;;;;;;;;;;;;-5.41;77.96;100837.63;5072886;28;19939;-62
2022/02/28 01:54:19;;;;;;;;;;;;;;;-5.44;78.20;100829.22;5073917;28;19931;-64
2022/02/28 01:56:45;;;;;;;;;;;;;;;-5.50;78.18;100833.88;5072763;28;20309;-59
2022/02/28 01:59:10;;;;;;;;;;;;;;;-5.46;78.10;100829.34;5073065;28;19924;-61
2022/02/28 02:01:36;;;;;;;;;;;;;;;-5.46;77.93;100823.34;5074161;28;20410;-60
2022/02/28 02:04:02;;;;;;;;;;;;;;;-5.50;77.98;100833.03;5070974;28;19924;-61
2022/02/28 02:06:27;;;;;;;;;;;;;;;-5.51;78.28;100824.44;5052496;28;19928;-61
2022/02/28 02:08:53;;;;;;;;;;;;;;;-5.51;78.61;100826.22;5052750;28;20044;-60
2022/02/28 02:11:19;;;;;;;;;;;;;;;-5.48;78.60;100826.84;5052430;28;20019;-60
2022/02/28 02:13:46;;;;;;;;;;;;;;;-5.46;77.89;100831.09;5052624;28;19925;-61
2022/02/28 02:16:12;;;;;;;;;;;;;;;-5.46;78.14;100821.56;5052379;28;19991;-59
2022/02/28 02:18:37;;;;;;;;;;;;;;;-5.45;78.20;100827.56;5035552;28;19925;-60
2022/02/28 02:21:03;;;;;;;;;;;;;;;-5.47;78.14;100825.09;5052391;28;19976;-61
2022/02/28 02:23:29;;;;;;;;;;;;;;;-5.55;78.19;100824.75;5057094;28;19925;-62
2022/02/28 02:25:56;;;;;;;;;;;;;;;-5.55;78.25;100824.75;5072200;28;20015;-60
2022/02/28 02:28:24;;;;;;;;;;;;;;;-5.53;78.29;100830.63;5072368;28;19924;-62
2022/02/28 02:30:51;;;;;;;;;;;;;;;-5.60;78.30;100835.38;5073250;28;19928;-61
2022/02/28 02:33:17;;;;;;;;;;;;;;;-5.58;78.21;100830.13;5055329;28;19924;-60
2022/02/28 02:35:49;;;;;;;;;;;;;;;-5.71;78.50;100835.22;5071760;28;19928;-60
2022/02/28 02:38:15;;;;;;;;;;;;;;;-5.67;78.64;100834.13;5072489;28;19939;-59
2022/02/28 02:40:40;;;;;;;;;;;;;;;-5.69;78.35;100845.47;5071744;28;19933;-61
2022/02/28 02:43:06;;;;;;;;;;;;;;;-5.73;78.12;100845.66;5054673;28;20398;-61
2022/02/28 02:45:31;;;;;;;;;;;;;;;-5.83;78.59;100841.16;5071393;28;20019;-61
2022/02/28 02:47:57;;;;;;;;;;;;;;;-5.81;78.74;100836.75;5055223;28;20298;-61
2022/02/28 02:50:23;;;;;;;;;;;;;;;-5.89;78.81;100842.38;5071543;28;20306;-61
2022/02/28 02:52:48;;;;;;;;;;;;;;;-5.83;78.42;100843.75;5057534;28;19925;-61
2022/02/28 02:55:14;;;;;;;;;;;;;;;-5.83;78.40;100852.31;5035188;28;19925;-61
2022/02/28 02:57:40;;;;;;;;;;;;;;;-5.82;78.14;100848.00;5035083;28;20399;-60
2022/02/28 03:00:07;;;;;;;;;;;;;;;-5.89;78.19;100857.88;5052957;28;19925;-60
2022/02/28 03:02:40;;;;;;;;;;;;;;;-5.96;78.53;100854.06;5051605;28;19941;-60
2022/02/28 03:05:06;;;;;;;;;;;;;;;-5.95;78.91;100848.78;5051312;28;20028;-58
2022/02/28 03:07:32;;;;;;;;;;;;;;;-6.00;78.53;100857.72;5052933;28;19967;-60
2022/02/28 03:09:58;;;;;;;;;;;;;;;-5.98;78.56;100848.97;5051329;28;19929;-60
2022/02/28 03:12:24;;;;;;;;;;;;;;;-6.05;78.91;100855.44;5052120;28;19932;-60
2022/02/28 03:14:52;;;;;;;;;;;;;;;-6.02;78.77;100849.28;5034445;28;19932;-59
2022/02/28 03:17:19;;;;;;;;;;;;;;;-6.04;78.78;100846.78;5034921;28;19925;-60
2022/02/28 03:19:44;;;;;;;;;;;;;;;-6.05;79.11;100842.53;5050941;28;19970;-60
2022/02/28 03:22:10;;;;;;;;;;;;;;;-6.12;79.54;100849.00;5051102;28;19924;-61
2022/02/28 03:24:41;;;;;;;;;;;;;;;-6.11;78.83;100852.44;5050745;28;19929;-61
2022/02/28 03:27:06;;;;;;;;;;;;;;;-6.14;79.05;100865.53;5051162;28;19929;-61
2022/02/28 03:29:32;;;;;;;;;;;;;;;-6.15;79.99;100859.50;5054479;28;20317;-62
2022/02/28 03:31:59;;;;;;;;;;;;;;;-6.19;79.50;100866.63;5052074;28;19933;-60
2022/02/28 03:34:24;;;;;;;;;;;;;;;-6.23;79.27;100859.16;5050637;28;19925;-60
2022/02/28 03:36:50;;;;;;;;;;;;;;;-6.21;79.52;100859.88;5050734;28;20032;-60
2022/02/28 03:39:16;;;;;;;;;;;;;;;-6.19;79.59;100856.28;5050767;28;20007;-60
2022/02/28 03:41:42;;;;;;;;;;;;;;;-6.23;79.51;100866.91;5050552;28;20035;-62
2022/02/28 03:44:08;;;;;;;;;;;;;;;-6.21;79.65;100868.44;5050614;28;19924;-61
2022/02/28 03:46:38;;;;;;;;;;;;;;;-6.20;79.47;100864.97;5050813;28;20043;-60
2022/02/28 03:49:16;;;;;;;;;;;;;;;-6.23;79.63;100870.31;5050974;28;19994;-61
2022/02/28 03:51:47;;;;;;;;;;;;;;;-6.20;79.57;100867.53;5052053;28;19960;-61
2022/02/28 03:54:45;;;;;;;;;;;;;;;-6.17;79.56;100867.34;5049264;28;20420;-62
2022/02/28 03:57:10;;;;;;;;;;;;;;;-6.17;79.22;100869.94;5032637;28;19929;-61
2022/02/28 03:59:36;;;;;;;;;;;;;;;-6.23;79.55;100865.16;5016302;28;20012;-63
2022/02/28 04:02:02;;;;;;;;;;;;;;;-6.17;79.22;100876.84;5032397;28;19929;-61
2022/02/28 04:04:34;;;;;;;;;;;;;;;-6.22;79.20;100874.53;5016980;28;19932;-60
2022/02/28 04:07:00;;;;;;;;;;;;;;;-6.22;78.86;100877.13;5049138;28;20429;-61
2022/02/28 04:09:27;;;;;;;;;;;;;;;-6.27;79.19;100875.75;5050933;28;20478;-60
2022/02/28 04:11:54;;;;;;;;;;;;;;;-6.34;79.51;100879.63;5052087;28;19932;-60
2022/02/28 04:14:19;;;;;;;;;;;;;;;-6.34;80.05;100884.78;5052561;28;19924;-62
2022/02/28 04:16:45;;;;;;;;;;;;;;;-6.35;79.81;100877.94;5068617;28;19929;-61
2022/02/28 04:19:46;;;;;;;;;;;;;;;-6.28;79.09;100887.00;5009405;28;19933;-62
2022/02/28 04:22:11;;;;;;;;;;;;;;;-6.32;79.24;100880.34;5043872;28;19928;-61
2022/02/28 04:24:44;;;;;;;;;;;;;;;-6.31;79.22;100884.59;5036335;28;20039;-60
2022/02/28 04:27:10;;;;;;;;;;;;;;;-6.30;79.22;100891.41;5068895;28;19929;-62
2022/02/28 04:29:37;;;;;;;;;;;;;;;-6.32;79.40;100886.38;5069892;28;20416;-60
2022/02/28 04:32:16;;;;;;;;;;;;;;;-6.28;79.35;100890.41;5050317;28;20398;-61
2022/02/28 04:35:03;;;;;;;;;;;;;;;-6.33;79.54;100887.25;5033432;28;19975;-59
2022/02/28 04:37:31;;;;;;;;;;;;;;;-6.37;79.68;100888.38;5033404;28;20032;-57
2022/02/28 04:39:57;;;;;;;;;;;;;;;-6.30;79.12;100889.66;5049934;28;19986;-60
2022/02/28 04:42:23;;;;;;;;;;;;;;;-6.27;79.25;100893.81;5051007;28;20445;-60
2022/02/28 04:44:50;;;;;;;;;;;;;;;-6.23;78.99;100890.97;5052864;28;19925;-60
2022/02/28 04:47:16;;;;;;;;;;;;;;;-6.14;78.90;100893.91;5059263;28;19979;-61
2022/02/28 04:50:00;;;;;;;;;;;;;;;-6.14;78.41;100896.50;5051302;28;20019;-59
2022/02/28 04:52:26;;;;;;;;;;;;;;;-6.10;78.40;100896.19;5050046;28;19955;-61
2022/02/28 04:54:52;;;;;;;;;;;;;;;-6.23;78.41;100900.47;5083473;28;20011;-59
2022/02/28 04:57:19;;;;;;;;;;;;;;;-6.10;78.87;100903.94;5017201;28;19929;-60
2022/02/28 04:59:46;;;;;;;;;;;;;;;-6.06;78.19;100899.41;5051484;28;20310;-62
2022/02/28 05:02:14;;;;;;;;;;;;;;;-5.98;77.85;100902.38;5038784;28;19939;-60
2022/02/28 05:04:51;;;;;;;;;;;;;;;-5.97;77.55;100901.44;5062213;28;20015;-59
2022/02/28 05:07:18;;;;;;;;;;;;;;;-5.89;77.59;100906.13;5054111;28;19950;-59
2022/02/28 05:09:44;;;;;;;;;;;;;;;-5.85;77.10;100899.81;5053006;28;19928;-59
2022/02/28 05:12:09;;;;;;;;;;;;;;;-5.83;77.35;100890.22;5036723;28;19994;-59
2022/02/28 05:14:35;;;;;;;;;;;;;;;-5.82;76.94;100907.41;5053858;28;19928;-62
2022/02/28 05:17:01;;;;;;;;;;;;;;;-5.80;76.62;100901.19;5054703;28;20390;-60
2022/02/28 05:19:29;;;;;;;;;;;;;;;-5.80;76.82;100898.63;5053430;28;20456;-62
2022/02/28 05:21:55;;;;;;;;;;;;;;;-5.68;76.55;100901.38;5053102;28;19955;-62
2022/02/28 05:24:20;;;;;;;;;;;;;;;-5.68;76.11;100898.78;5036077;28;20309;-61
2022/02/28 05:26:48;;;;;;;;;;;;;;;-5.67;76.26;100913.38;5029640;28;19929;-57
2022/02/28 05:29:14;;;;;;;;;;;;;;;-5.58;76.13;100913.63;5048318;28;19931;-60
2022/02/28 05:31:40;;;;;;;;;;;;;;;-5.43;75.44;100913.59;5049564;28;19933;-59
2022/02/28 05:34:24;;;;;;;;;;;;;;;-5.42;75.06;100905.72;5065495;28;19924;-62
2022/02/28 05:36:50;;;;;;;;;;;;;;;-5.40;75.08;100908.22;5068302;28;19928;-62
2022/02/28 05:39:36;;;;;;;;;;;;;;;-5.34;75.20;100915.59;5071180;28;19935;-62
2022/02/28 05:42:03;;;;;;;;;;;;;;;-5.27;74.75;100917.66;5050370;28;20043;-61
2022/02/28 05:44:31;;;;;;;;;;;;;;;-5.18;74.29;100918.00;5070277;28;20022;-60
2022/02/28 05:46:57;;;;;;;;;;;;;;;-5.17;74.30;100917.94;5050333;28;19929;-62
2022/02/28 05:49:36;;;;;;;;;;;;;;;-5.21;74.73;100923.38;5067352;28;19928;-63
2022/02/28 05:52:02;;;;;;;;;;;;;;;-5.17;74.77;100922.28;5066013;28;19929;-61
2022/02/28 05:54:28;;;;;;;;;;;;;;;-5.09;74.13;100912.25;5071094;28;20382;-63
2022/02/28 05:56:53;;;;;;;;;;;;;;;-4.99;73.83;100915.09;5067800;28;20352;-60
2022/02/28 05:59:19;;;;;;;;;;;;;;;-4.85;73.51;100915.84;5061637;28;19924;-60
2022/02/28 06:01:44;;;;;;;;;;;;;;;-4.82;73.37;100920.81;5053614;28;19931;-60
2022/02/28 06:04:10;;;;;;;;;;;;;;;-4.84;73.20;100925.25;5050238;28;19975;-60
2022/02/28 06:06:35;;;;;;;;;;;;;;;-4.73;73.37;100924.56;5051716;28;19980;-60
2022/02/28 06:09:03;;;;;;;;;;;;;;;-4.63;73.13;100927.34;5049998;28;20027;-63
2022/02/28 06:11:29;;;;;;;;;;;;;;;-4.70;73.32;100926.94;5049756;28;19929;-61
2022/02/28 06:13:55;;;;;;;;;;;;;;;-4.57;72.99;100926.94;5049828;28;20015;-61
2022/02/28 06:16:20;;;;;;;;;;;;;;;-4.56;73.30;100936.34;5049757;28;19939;-61
2022/02/28 06:18:46;;;;;;;;;;;;;;;-4.59;72.68;100933.97;5062888;28;20015;-59
2022/02/28 06:21:12;;;;;;;;;;;;;;;-4.54;72.86;100938.84;5069345;28;20019;-61
2022/02/28 06:26:21;;;;;;;;;;;;;;;-4.34;72.45;100934.00;5061102;28;19928;-60
2022/02/28 06:28:47;;;;;;;;;;;;;;;-4.21;72.13;100939.16;5050881;28;19983;-63
2022/02/28 06:31:12;;;;;;;;;;;;;;;-4.24;71.44;100935.97;5051587;28;19929;-61
2022/02/28 06:33:38;;;;;;;;;;;;;;;-4.16;71.74;100942.28;5050717;28;20328;-61
2022/02/28 06:36:04;;;;;;;;;;;;;;;-4.07;70.85;100932.22;5049774;28;19959;-62
2022/02/28 06:38:29;;;;;;;;;;;;;;;-3.91;71.14;100933.66;5048078;28;20290;-60
2022/02/28 06:40:55;;;;;;;;;;;;;;;-3.80;70.41;100937.25;5049191;28;19964;-61
2022/02/28 06:43:21;;;;;;;;;;;;;;;-3.90;70.02;100948.25;5066315;28;20356;-63
2022/02/28 06:45:47;;;;;;;;;;;;;;;-3.89;70.24;100943.91;5059295;28;19977;-60
2022/02/28 06:48:13;;;;;;;;;;;;;;;-3.76;70.97;100941.31;5049960;28;19924;-60
2022/02/28 06:50:38;;;;;;;;;;;;;;;-3.71;70.30;100944.38;5051470;28;19931;-61
2022/02/28 06:53:04;;;;;;;;;;;;;;;-3.71;69.64;100940.03;5051425;28;20283;-62
2022/02/28 06:55:30;;;;;;;;;;;;;;;-3.66;69.89;100942.31;5050132;28;20018;-61
2022/02/28 06:57:55;;;;;;;;;;;;;;;-3.64;69.63;100934.44;5050923;28;20002;-62
2022/02/28 07:00:21;;;;;;;;;;;;;;;-3.49;69.62;100939.38;5051058;28;19936;-63
2022/02/28 07:03:12;;;;;;;;;;;;;;;-3.45;69.27;100929.59;5028153;28;20455;-61
2022/02/28 07:05:38;;;;;;;;;;;;;;;-3.47;69.38;100927.13;5044380;28;19924;-61
2022/02/28 07:08:04;;;;;;;;;;;;;;;-3.40;69.88;100929.28;5049658;28;19994;-62
2022/02/28 07:10:29;;;;;;;;;;;;;;;-3.31;68.55;100926.03;5030842;28;20163;-62
2022/02/28 07:12:55;;;;;;;;;;;;;;;-3.23;69.04;100934.09;5048850;28;20011;-61
2022/02/28 07:15:23;;;;;;;;;;;;;;;-3.13;68.85;100939.44;5048230;28;20095;-62
2022/02/28 07:17:49;;;;;;;;;;;;;;;-3.06;68.48;100940.63;5048461;28;19978;-63
2022/02/28 07:20:14;;;;;;;;;;;;;;;-2.93;67.88;100935.41;5048320;28;19928;-59
2022/02/28 07:22:40;;;;;;;;;;;;;;;-2.94;68.18;100937.19;5049917;28;19947;-61
2022/02/28 07:25:06;;;;;;;;;;;;;;;-2.78;68.27;100934.28;5050593;28;19931;-62
2022/02/28 07:27:32;;;;;;;;;;;;;;;-2.79;68.20;100938.63;5049023;28;19935;-62
2022/02/28 07:29:58;;;;;;;;;;;;;;;-2.62;68.08;100933.94;5050709;28;20019;-63
2022/02/28 07:32:24;;;;;;;;;;;;;;;-2.58;67.13;100943.19;5031129;28;20062;-60
2022/02/28 07:34:51;;;;;;;;;;;;;;;-2.50;66.82;100938.22;5013878;28;19925;-62
2022/02/28 07:37:16;;;;;;;;;;;;;;;-2.49;67.42;100932.09;5048430;28;19924;-63
2022/02/28 07:39:42;;;;;;;;;;;;;;;-2.34;66.73;100933.53;5061627;28;19978;-60
2022/02/28 07:42:07;;;;;;;;;;;;;;;-2.22;66.36;100933.56;5057073;28;19928;-61
2022/02/28 07:44:33;;;;;;;;;;;;;;;-2.19;66.86;100941.94;5060122;28;19935;-61
2022/02/28 07:46:58;;;;;;;;;;;;;;;-2.08;66.44;100941.94;5049730;28;19936;-61
2022/02/28 07:49:24;;;;;;;;;;;;;;;-2.01;65.99;100938.88;5059869;28;20397;-58
2022/02/28 07:51:50;;;;;;;;;;;;;;;-2.00;66.26;100941.38;5065736;28;19929;-60
2022/02/28 07:54:15;;;;;;;;;;;;;;;-1.88;66.12;100942.22;5065308;28;20478;-62
2022/02/28 07:56:41;;;;;;;;;;;;;;;-1.87;66.08;100930.84;5066607;28;19928;-61
2022/02/28 07:59:07;;;;;;;;;;;;;;;-1.84;65.67;100941.00;5065730;28;19925;-61
2022/02/28 08:01:32;;;;;;;;;;;;;;;-1.87;66.07;100936.06;5056651;28;19928;-58
2022/02/28 08:03:59;;;;;;;;;;;;;;;-1.77;66.26;100944.78;5047217;28;19967;-60
2022/02/28 08:06:24;;;;;;;;;;;;;;;-1.73;66.06;100942.78;5047609;28;19940;-61
2022/02/28 08:08:50;;;;;;;;;;;;;;;-1.67;65.92;100942.31;5065809;28;19924;-61
2022/02/28 08:11:15;;;;;;;;;;;;;;;-1.61;65.88;100945.25;5059412;28;19929;-60
2022/02/28 08:13:41;;;;;;;;;;;;;;;-1.56;65.82;100942.25;5049979;28;19979;-60
2022/02/28 08:16:06;;;;;;;;;;;;;;;-1.45;65.62;100937.03;5049733;28;19931;-59
2022/02/28 08:18:32;;;;;;;;;;;;;;;-1.33;64.72;100930.03;5054405;28;19929;-62
2022/02/28 08:20:57;;;;;;;;;;;;;;;-1.33;64.99;100927.44;5049701;28;19932;-60
2022/02/28 08:23:23;;;;;;;;;;;;;;;-1.37;65.43;100941.66;5049315;28;20355;-60
2022/02/28 08:25:49;;;;;;;;;;;;;;;-1.29;65.33;100938.44;5064382;28;19967;-62
2022/02/28 08:28:14;;;;;;;;;;;;;;;-1.21;64.57;100921.25;5063266;28;20372;-63
2022/02/28 08:30:40;;;;;;;;;;;;;;;-1.07;64.38;100929.72;5053268;28;19939;-60
2022/02/28 08:33:07;;;;;;;;;;;;;;;-0.94;64.19;100923.41;5060571;28;19970;-59
2022/02/28 08:35:32;;;;;;;;;;;;;;;-1.01;63.78;100935.25;5049855;28;19929;-58
2022/02/28 08:37:58;;;;;;;;;;;;;;;-0.98;63.57;100932.41;5053633;28;19978;-60
2022/02/28 08:40:23;;;;;;;;;;;;;;;-0.93;63.60;100927.66;5052559;28;20421;-60
2022/02/28 08:42:49;;;;;;;;;;;;;;;-0.94;63.30;100938.22;5053524;28;19932;-60
2022/02/28 08:45:14;;;;;;;;;;;;;;;-0.98;63.47;100935.00;5051635;28;19963;-58
2022/02/28 08:47:40;;;;;;;;;;;;;;;-0.82;63.05;100929.41;5050400;28;20406;-59
2022/02/28 08:50:06;;;;;;;;;;;;;;;-0.85;63.17;100924.44;5051673;28;20402;-60
2022/02/28 08:52:32;;;;;;;;;;;;;;;-0.82;63.08;100926.78;5050041;28;20275;-59
2022/02/28 08:54:59;;;;;;;;;;;;;;;-0.73;62.67;100927.81;5051321;28;19929;-61
2022/02/28 08:57:24;;;;;;;;;;;;;;;-0.65;62.40;100933.19;5053660;28;19933;-60
2022/02/28 08:59:50;;;;;;;;;;;;;;;-0.53;61.72;100934.81;5054141;28;19924;-59
2022/02/28 09:02:17;;;;;;;;;;;;;;;-0.58;61.50;100930.94;5017058;28;19924;-60
2022/02/28 09:04:43;;;;;;;;;;;;;;;-0.57;60.94;100930.78;5050283;28;20039;-60
2022/02/28 09:07:08;;;;;;;;;;;;;;;-0.67;60.80;100927.31;5049107;28;20555;-60
2022/02/28 09:09:34;;;;;;;;;;;;;;;-0.70;60.85;100933.59;5047165;28;19929;-59
2022/02/28 09:11:59;;;;;;;;;;;;;;;-0.73;61.20;100920.81;5050133;28;19929;-60
2022/02/28 09:14:25;;;;;;;;;;;;;;;-0.59;60.78;100922.28;5052449;28;19925;-60
2022/02/28 09:16:51;;;;;;;;;;;;;;;-0.61;60.56;100916.38;5051611;28;20408;-61
2022/02/28 09:19:17;;;;;;;;;;;;;;;-0.56;60.86;100929.00;5053038;28;19932;-61
2022/02/28 09:21:42;;;;;;;;;;;;;;;-0.54;59.80;100919.28;5049897;28;19936;-60
2022/02/28 09:24:08;;;;;;;;;;;;;;;-0.44;59.87;100925.41;5052923;28;20348;-59
2022/02/28 09:26:36;;;;;;;;;;;;;;;-0.29;59.66;100931.94;5051923;28;19939;-60
2022/02/28 09:29:02;;;;;;;;;;;;;;;-0.26;59.89;100915.22;5053744;28;19925;-59
2022/02/28 09:31:27;;;;;;;;;;;;;;;-0.19;59.68;100918.94;5051262;28;20344;-59
2022/02/28 09:33:53;;;;;;;;;;;;;;;-0.18;59.51;100922.38;5051102;28;19933;-60
2022/02/28 09:36:18;;;;;;;;;;;;;;;-0.17;59.73;100918.81;5050010;28;19933;-60
2022/02/28 09:38:44;;;;;;;;;;;;;;;-0.10;60.11;100925.97;5051486;28;19928;-58
2022/02/28 09:41:10;;;;;;;;;;;;;;;-0.04;59.56;100924.63;5050009;28;19929;-60
2022/02/28 09:43:55;;;;;;;;;;;;;;;0.00;59.60;100910.41;5049033;28;20390;-60
2022/02/28 09:46:39;;;;;;;;;;;;;;;0.01;59.79;100906.81;5050291;28;19939;-60
2022/02/28 09:49:25;;;;;;;;;;;;;;;0.06;59.36;100909.88;5021080;28;20382;-59
2022/02/28 09:52:09;;;;;;;;;;;;;;;0.09;59.00;100909.59;5052440;28;19928;-60
2022/02/28 09:54:55;;;;;;;;;;;;;;;0.07;58.71;100906.28;5032822;28;20386;-59
2022/02/28 09:57:46;;;;;;;;;;;;;;;0.06;58.92;100895.97;5056062;28;19964;-60
2022/02/28 10:00:16;;;;;;;;;;;;;;;0.00;58.56;100902.56;5063279;28;20293;-61
2022/02/28 10:02:44;;;;;;;;;;;;;;;0.06;58.55;100893.38;5051765;28;19939;-60
2022/02/28 10:05:11;;;;;;;;;;;;;;;0.11;57.96;100896.41;5069282;28;19931;-59
2022/02/28 10:07:46;;;;;;;;;;;;;;;0.17;57.32;100901.09;5072564;28;19929;-59
2022/02/28 10:10:15;;;;;;;;;;;;;;;0.16;56.59;100902.06;5070487;28;19924;-60
2022/02/28 10:12:41;;;;;;;;;;;;;;;0.14;56.27;100893.53;5069969;28;19995;-59
2022/02/28 10:15:11;;;;;;;;;;;;;;;0.15;56.12;100884.78;5048234;28;19947;-62
2022/02/28 10:17:41;;;;;;;;;;;;;;;0.21;55.59;100892.88;5049078;28;19960;-62
2022/02/28 10:20:21;;;;;;;;;;;;;;;0.07;55.32;100893.25;5047089;28;19925;-61
2022/02/28 10:22:50;;;;;;;;;;;;;;;0.13;55.25;100881.47;5048646;28;19928;-60
2022/02/28 10:25:24;;;;;;;;;;;;;;;0.07;54.76;100884.63;5050117;28;19925;-60
2022/02/28 10:28:10;;;;;;;;;;;;;;;0.04;54.70;100877.06;5048462;28;20041;-61
2022/02/28 10:31:01;;;;;;;;;;;;;;;0.17;53.98;100893.28;5050449;28;20363;-59
2022/02/28 10:33:46;;;;;;;;;;;;;;;0.25;54.56;100869.16;5050758;28;19958;-59
2022/02/28 10:36:27;;;;;;;;;;;;;;;0.23;53.28;100869.28;5051448;28;19955;-60
2022/02/28 10:38:56;;;;;;;;;;;;;;;0.26;53.47;100882.03;5031413;28;19924;-61
2022/02/28 10:41:25;;;;;;;;;;;;;;;0.22;53.38;100878.88;5049576;28;19983;-59
2022/02/28 10:43:52;;;;;;;;;;;;;;;0.32;53.04;100876.28;5051424;28;20337;-60
2022/02/28 10:46:18;;;;;;;;;;;;;;;0.29;52.68;100868.72;5049798;28;19929;-60
2022/02/28 10:49:07;;;;;;;;;;;;;;;0.31;53.02;100868.59;5051329;28;19952;-61
2022/02/28 10:52:02;;;;;;;;;;;;;;;0.35;53.91;100857.75;5048769;28;20400;-60
2022/02/28 10:54:32;;;;;;;;;;;;;;;0.44;52.82;100872.63;5048150;28;19924;-58
2022/02/28 10:56:59;;;;;;;;;;;;;;;0.42;52.78;100879.75;5049743;28;19969;-61
2022/02/28 10:59:27;;;;;;;;;;;;;;;0.43;53.02;100870.97;5054186;28;19924;-57
2022/02/28 11:01:52;;;;;;;;;;;;;;;0.39;55.01;100873.97;5057975;28;19928;-59
2022/02/28 11:04:28;;;;;;;;;;;;;;;0.44;54.30;100870.00;5066961;28;20449;-61
2022/02/28 11:06:53;;;;;;;;;;;;;;;0.52;54.18;100871.09;5068602;28;19928;-60
2022/02/28 11:09:28;;;;;;;;;;;;;;;0.55;53.55;100866.44;5068087;28;20411;-60
2022/02/28 11:11:56;;;;;;;;;;;;;;;0.54;54.26;100864.81;5050082;28;19932;-59
2022/02/28 11:14:22;;;;;;;;;;;;;;;0.62;54.17;100866.75;5066327;28;19931;-60
2022/02/28 11:16:47;;;;;;;;;;;;;;;0.59;53.90;100861.75;5062326;28;19928;-62
2022/02/28 11:19:13;;;;;;;;;;;;;;;0.52;53.95;100856.28;5046611;28;19931;-61
2022/02/28 11:21:39;;;;;;;;;;;;;;;0.59;53.62;100857.41;5049175;28;19994;-59
2022/02/28 11:24:04;;;;;;;;;;;;;;;0.61;53.86;100844.19;5049332;28;19925;-62
2022/02/28 11:26:30;;;;;;;;;;;;;;;0.56;52.67;100846.38;5048772;28;19928;-60
2022/02/28 11:28:58;;;;;;;;;;;;;;;0.55;52.78;100848.16;5048164;28;20341;-60
2022/02/28 11:31:23;;;;;;;;;;;;;;;0.57;52.68;100848.88;5048232;28;20530;-61
2022/02/28 11:34:00;;;;;;;;;;;;;;;0.57;53.07;100841.03;5047874;28;19979;-62
2022/02/28 11:36:26;;;;;;;;;;;;;;;0.57;52.70;100833.22;5048320;28;19929;-62
2022/02/28 11:38:51;;;;;;;;;;;;;;;0.61;52.26;100834.56;5049238;28;19947;-60
2022/02/28 11:41:18;;;;;;;;;;;;;;;0.64;51.95;100836.09;5047795;28;19929;-60
2022/02/28 11:43:45;;;;;;;;;;;;;;;0.65;51.15;100835.97;5047517;28;19928;-61
2022/02/28 11:46:12;;;;;;;;;;;;;;;0.72;50.67;100840.63;5050786;28;19963;-60
2022/02/28 11:48:40;;;;;;;;;;;;;;;0.73;51.30;100837.06;5048808;28;19925;-58
2022/02/28 11:51:05;;;;;;;;;;;;;;;0.70;51.48;100830.31;5030186;28;19967;-59
2022/02/28 11:53:35;;;;;;;;;;;;;;;0.73;52.15;100824.00;5048390;28;19924;-59
2022/02/28 11:56:02;;;;;;;;;;;;;;;0.74;52.10;100825.66;5048723;28;19935;-61
2022/02/28 11:58:27;;;;;;;;;;;;;;;0.64;51.99;100821.25;5048453;28;19974;-63
2022/02/28 12:01:10;;;;;;;;;;;;;;;0.56;51.87;100821.13;5046660;28;20496;-62
2022/02/28 12:03:36;;;;;;;;;;;;;;;0.56;51.56;100810.69;5027012;28;20365;-62
2022/02/28 12:06:03;;;;;;;;;;;;;;;0.60;51.21;100819.88;5028589;28;19929;-61
2022/02/28 12:08:33;;;;;;;;;;;;;;;0.59;52.00;100809.56;5026500;28;20494;-59
2022/02/28 12:11:01;;;;;;;;;;;;;;;0.53;51.27;100816.19;5027946;28;19929;-62
2022/02/28 12:13:34;;;;;;;;;;;;;;;0.55;51.71;100808.22;5045424;28;20019;-61
2022/02/28 12:16:07;;;;;;;;;;;;;;;0.51;51.80;100805.06;5046660;28;19929;-61
2022/02/28 12:18:33;;;;;;;;;;;;;;;0.56;51.71;100802.88;5030634;28;20067;-61
2022/02/28 12:21:07;;;;;;;;;;;;;;;0.55;51.90;100800.38;5048519;28;19936;-60
2022/02/28 12:23:33;;;;;;;;;;;;;;;0.67;51.64;100800.09;5045804;28;19944;-61
2022/02/28 12:25:59;;;;;;;;;;;;;;;0.73;51.73;100796.13;5047393;28;19928;-61
2022/02/28 12:28:25;;;;;;;;;;;;;;;0.73;51.02;100790.88;5049079;28;19929;-62
2022/02/28 12:31:00;;;;;;;;;;;;;;;0.66;51.07;100793.25;5050279;28;19971;-62
2022/02/28 12:33:46;;;;;;;;;;;;;;;0.68;51.68;100795.72;5049270;28;19931;-61
2022/02/28 12:36:39;;;;;;;;;;;;;;;0.72;51.42;100789.25;5048259;28;19929;-61
2022/02/28 12:39:12;;;;;;;;;;;;;;;0.64;50.94;100791.72;5032032;28;19963;-62
2022/02/28 12:41:39;;;;;;;;;;;;;;;0.60;50.56;100780.75;5060828;28;19935;-62
2022/02/28 12:44:05;;;;;;;;;;;;;;;0.64;50.93;100779.50;5067460;28;19924;-62